Time;durP1;ratioP1;P1;durP2;ratioP2;P2;SDS_P1;SDS_P2;PMS_P1;PMS_P2;Temp;Humidity;BMP_temperature;BMP_pressure;BME280_temperature;BME280_humidity;BME280_pressure;Samples;Min_cycle;Max_cycle;Signal;HPM_P1;HPM_P2
2021/04/07 00:00:13;;;;;;;1.83;1.40;;;;;;;;;;5092302;28;20193;-75
2021/04/07 00:02:39;;;;;;;2.20;1.20;;;;;;;;;;5072076;28;20200;-74
2021/04/07 00:05:07;;;;;;;1.00;0.90;;;;;;;;;;5072159;28;20212;-74
2021/04/07 00:07:33;;;;;;;1.67;1.23;;;;;;;;;;5071685;28;20220;-75
2021/04/07 00:10:00;;;;;;;1.50;1.40;;;;;;;;;;5074005;28;20258;-74
2021/04/07 00:12:26;;;;;;;1.50;1.40;;;;;;;;;;5076207;28;20209;-74
2021/04/07 00:14:52;;;;;;;1.55;1.45;;;;;;;;;;5076587;28;20200;-74
2021/04/07 00:17:19;;;;;;;1.38;1.25;;;;;;;;;;5076426;28;20329;-73
2021/04/07 00:19:45;;;;;;;1.02;0.95;;;;;;;;;;5076112;28;20201;-76
2021/04/07 00:22:11;;;;;;;3.58;1.20;;;;;;;;;;5076417;28;20737;-74
2021/04/07 00:24:37;;;;;;;2.85;2.08;;;;;;;;;;5076487;28;20662;-74
2021/04/07 00:27:08;;;;;;;1.77;1.58;;;;;;;;;;5076005;28;20584;-74
2021/04/07 00:29:35;;;;;;;0.85;0.85;;;;;;;;;;5075829;28;20208;-75
2021/04/07 00:32:01;;;;;;;1.67;1.58;;;;;;;;;;5075790;28;20227;-72
2021/04/07 00:34:28;;;;;;;4.43;1.58;;;;;;;;;;5076082;28;20283;-75
2021/04/07 00:36:54;;;;;;;1.45;1.10;;;;;;;;;;5075528;28;20261;-74
2021/04/07 00:39:20;;;;;;;1.98;1.80;;;;;;;;;;5075926;28;20208;-75
2021/04/07 00:41:46;;;;;;;1.15;1.00;;;;;;;;;;5076060;28;20606;-73
2021/04/07 00:44:12;;;;;;;2.15;1.40;;;;;;;;;;5075972;28;20704;-75
2021/04/07 00:46:38;;;;;;;1.88;1.77;;;;;;;;;;5075340;28;20188;-76
2021/04/07 00:49:04;;;;;;;3.25;1.60;;;;;;;;;;5075185;28;20205;-74
2021/04/07 00:51:31;;;;;;;1.00;0.90;;;;;;;;;;5075564;28;20191;-75
2021/04/07 00:53:57;;;;;;;2.72;1.40;;;;;;;;;;5075037;28;20252;-74
2021/04/07 00:56:24;;;;;;;1.50;0.90;;;;;;;;;;5075092;28;20253;-74
2021/04/07 00:58:51;;;;;;;1.42;1.33;;;;;;;;;;5075901;28;20212;-74
2021/04/07 01:01:17;;;;;;;0.98;0.88;;;;;;;;;;5083932;28;20219;-74
2021/04/07 01:03:43;;;;;;;1.70;1.17;;;;;;;;;;5095759;28;20520;-74
2021/04/07 01:06:09;;;;;;;1.60;0.98;;;;;;;;;;5095522;28;20206;-74
2021/04/07 01:08:36;;;;;;;1.55;1.40;;;;;;;;;;5095718;28;20295;-76
2021/04/07 01:11:02;;;;;;;1.10;1.00;;;;;;;;;;5094976;28;20191;-75
2021/04/07 01:13:29;;;;;;;1.17;1.08;;;;;;;;;;5095405;28;20677;-75
2021/04/07 01:15:55;;;;;;;1.25;1.15;;;;;;;;;;5095645;28;20287;-74
2021/04/07 01:18:22;;;;;;;1.88;1.52;;;;;;;;;;5095040;28;20192;-74
2021/04/07 01:20:48;;;;;;;1.27;1.00;;;;;;;;;;5093856;28;20216;-74
2021/04/07 01:23:14;;;;;;;2.47;1.20;;;;;;;;;;5095069;28;20556;-74
2021/04/07 01:25:41;;;;;;;1.23;1.13;;;;;;;;;;5095171;28;20283;-75
2021/04/07 01:28:07;;;;;;;1.50;1.10;;;;;;;;;;5095211;28;20206;-75
2021/04/07 01:30:45;;;;;;;1.95;1.85;;;;;;;;;;5094758;28;20192;-74
2021/04/07 01:33:17;;;;;;;1.70;1.58;;;;;;;;;;5094836;28;20644;-73
2021/04/07 01:35:43;;;;;;;3.83;1.33;;;;;;;;;;5094420;28;20277;-74
2021/04/07 01:38:09;;;;;;;4.25;1.52;;;;;;;;;;5094664;28;20219;-74
2021/04/07 01:40:36;;;;;;;1.93;1.50;;;;;;;;;;5094942;28;20561;-74
2021/04/07 01:43:03;;;;;;;1.90;1.80;;;;;;;;;;5095060;28;20896;-73
2021/04/07 01:45:30;;;;;;;1.65;1.45;;;;;;;;;;5094883;28;20699;-75
2021/04/07 01:47:56;;;;;;;1.40;1.30;;;;;;;;;;5094606;28;20203;-75
2021/04/07 01:50:22;;;;;;;1.73;1.63;;;;;;;;;;5094515;28;20196;-75
2021/04/07 01:52:48;;;;;;;2.28;1.00;;;;;;;;;;5094586;28;20204;-77
2021/04/07 01:55:14;;;;;;;0.75;0.75;;;;;;;;;;5094789;28;20275;-74
2021/04/07 01:57:40;;;;;;;2.45;2.35;;;;;;;;;;5094617;28;20236;-74
2021/04/07 02:00:09;;;;;;;2.10;1.65;;;;;;;;;;5094425;28;20662;-75
2021/04/07 02:02:35;;;;;;;2.58;1.30;;;;;;;;;;5094044;28;20184;-73
2021/04/07 02:05:01;;;;;;;2.08;1.73;;;;;;;;;;5094815;28;20207;-74
2021/04/07 02:07:27;;;;;;;1.30;1.20;;;;;;;;;;5094670;28;20196;-74
2021/04/07 02:09:53;;;;;;;1.98;1.58;;;;;;;;;;5094609;28;20649;-73
2021/04/07 02:12:19;;;;;;;1.60;1.50;;;;;;;;;;5094619;28;20227;-74
2021/04/07 02:14:45;;;;;;;1.10;1.00;;;;;;;;;;5094109;28;20223;-74
2021/04/07 02:17:12;;;;;;;6.00;1.38;;;;;;;;;;5093877;28;20253;-74
2021/04/07 02:19:38;;;;;;;2.45;1.00;;;;;;;;;;5093978;28;20208;-74
2021/04/07 02:22:05;;;;;;;3.63;1.38;;;;;;;;;;5093360;28;20196;-74
2021/04/07 02:24:32;;;;;;;1.10;0.90;;;;;;;;;;5093540;28;20246;-74
2021/04/07 02:26:58;;;;;;;3.60;0.80;;;;;;;;;;5093844;28;20212;-73
2021/04/07 02:29:24;;;;;;;1.70;0.90;;;;;;;;;;5094119;28;20200;-74
2021/04/07 02:31:50;;;;;;;1.33;1.23;;;;;;;;;;5093140;28;20290;-75
2021/04/07 02:34:17;;;;;;;0.90;0.88;;;;;;;;;;5094049;28;20216;-73
2021/04/07 02:36:42;;;;;;;1.10;1.00;;;;;;;;;;5093902;28;20235;-74
2021/04/07 02:39:09;;;;;;;1.87;1.73;;;;;;;;;;5094280;28;20221;-74
2021/04/07 02:41:35;;;;;;;0.73;0.70;;;;;;;;;;5094228;28;20462;-75
2021/04/07 02:44:01;;;;;;;1.03;0.93;;;;;;;;;;5093351;28;20244;-74
2021/04/07 02:46:27;;;;;;;1.10;0.85;;;;;;;;;;5093478;28;20453;-73
2021/04/07 02:48:53;;;;;;;1.73;1.25;;;;;;;;;;5093247;28;20337;-74
2021/04/07 02:51:20;;;;;;;1.83;1.13;;;;;;;;;;5093450;28;20208;-73
2021/04/07 02:53:46;;;;;;;0.68;0.60;;;;;;;;;;5093648;28;20254;-74
2021/04/07 02:56:12;;;;;;;1.33;0.90;;;;;;;;;;5093765;28;20184;-73
2021/04/07 02:58:38;;;;;;;0.95;0.95;;;;;;;;;;5093667;28;20502;-74
2021/04/07 03:01:04;;;;;;;1.35;1.25;;;;;;;;;;5093984;28;20195;-74
2021/04/07 03:03:30;;;;;;;1.13;1.02;;;;;;;;;;5093207;28;20294;-75
2021/04/07 03:05:56;;;;;;;1.52;1.30;;;;;;;;;;5092801;28;20204;-74
2021/04/07 03:08:23;;;;;;;1.10;1.00;;;;;;;;;;5092631;28;20184;-74
2021/04/07 03:10:49;;;;;;;1.95;1.67;;;;;;;;;;5093173;28;20798;-74
2021/04/07 03:13:15;;;;;;;1.60;1.00;;;;;;;;;;5092655;28;20224;-75
2021/04/07 03:15:41;;;;;;;0.70;0.70;;;;;;;;;;5093557;28;20542;-74
2021/04/07 03:18:07;;;;;;;1.10;1.00;;;;;;;;;;5093224;28;20192;-74
2021/04/07 03:20:33;;;;;;;1.83;1.67;;;;;;;;;;5092677;28;20207;-75
2021/04/07 03:22:59;;;;;;;0.93;0.85;;;;;;;;;;5093110;28;20227;-74
2021/04/07 03:25:26;;;;;;;1.80;1.15;;;;;;;;;;5092746;28;20192;-75
2021/04/07 03:27:52;;;;;;;1.23;0.90;;;;;;;;;;5092634;28;20244;-74
2021/04/07 03:30:19;;;;;;;0.85;0.85;;;;;;;;;;5093081;28;20561;-73
2021/04/07 03:32:45;;;;;;;1.00;1.00;;;;;;;;;;5092772;28;20623;-74
2021/04/07 03:35:11;;;;;;;1.55;1.48;;;;;;;;;;5092811;28;20208;-73
2021/04/07 03:37:37;;;;;;;1.50;1.00;;;;;;;;;;5092867;28;20651;-74
2021/04/07 03:40:04;;;;;;;0.90;0.90;;;;;;;;;;5092556;28;20238;-74
2021/04/07 03:42:31;;;;;;;1.30;1.20;;;;;;;;;;5092476;28;20561;-73
2021/04/07 03:44:57;;;;;;;1.27;0.95;;;;;;;;;;5091926;28;20611;-74
2021/04/07 03:47:23;;;;;;;6.38;1.35;;;;;;;;;;5092818;28;20665;-74
2021/04/07 03:49:49;;;;;;;2.25;1.45;;;;;;;;;;5092508;28;20552;-74
2021/04/07 03:52:15;;;;;;;1.20;1.10;;;;;;;;;;5091941;28;20196;-74
2021/04/07 03:54:43;;;;;;;1.00;0.90;;;;;;;;;;5092771;28;20184;-74
2021/04/07 03:57:09;;;;;;;1.98;1.30;;;;;;;;;;5092735;28;20195;-74
2021/04/07 03:59:36;;;;;;;1.20;1.13;;;;;;;;;;5092619;28;20222;-74
2021/04/07 04:02:02;;;;;;;2.00;1.90;;;;;;;;;;5092131;28;20196;-75
2021/04/07 04:04:28;;;;;;;2.08;1.35;;;;;;;;;;5092348;28;20218;-75
2021/04/07 04:06:54;;;;;;;0.70;0.68;;;;;;;;;;5092725;28;20203;-76
2021/04/07 04:09:20;;;;;;;1.17;0.90;;;;;;;;;;5092117;28;20200;-73
2021/04/07 04:11:46;;;;;;;0.90;0.90;;;;;;;;;;5092532;28;20449;-74
2021/04/07 04:14:12;;;;;;;1.27;1.05;;;;;;;;;;5092155;28;20486;-74
2021/04/07 04:16:41;;;;;;;0.70;0.60;;;;;;;;;;5092062;28;20204;-74
2021/04/07 04:19:07;;;;;;;0.90;0.90;;;;;;;;;;5092235;28;20203;-74
2021/04/07 04:21:33;;;;;;;5.57;1.98;;;;;;;;;;5092439;28;20665;-74
2021/04/07 04:23:59;;;;;;;1.17;1.07;;;;;;;;;;5092637;28;20229;-74
2021/04/07 04:26:25;;;;;;;1.90;1.55;;;;;;;;;;5092380;28;20437;-77
2021/04/07 04:28:51;;;;;;;0.90;0.90;;;;;;;;;;5091811;28;20234;-75
2021/04/07 04:31:17;;;;;;;1.53;1.33;;;;;;;;;;5092293;28;20294;-74
2021/04/07 04:33:44;;;;;;;1.23;1.23;;;;;;;;;;5092336;28;21439;-74
2021/04/07 04:36:10;;;;;;;1.25;1.05;;;;;;;;;;5092041;28;20236;-74
2021/04/07 04:38:36;;;;;;;2.47;2.00;;;;;;;;;;5092171;28;20181;-74
2021/04/07 04:41:03;;;;;;;2.45;1.50;;;;;;;;;;5092300;28;20252;-75
2021/04/07 04:43:29;;;;;;;2.58;1.95;;;;;;;;;;5091844;28;20196;-75
2021/04/07 04:45:55;;;;;;;4.45;1.88;;;;;;;;;;5092247;28;20215;-75
2021/04/07 04:48:21;;;;;;;0.90;0.90;;;;;;;;;;5091927;28;20636;-75
2021/04/07 04:50:48;;;;;;;2.65;1.40;;;;;;;;;;5092109;28;20683;-75
2021/04/07 04:53:14;;;;;;;3.63;2.10;;;;;;;;;;5091640;28;20679;-74
2021/04/07 04:55:40;;;;;;;0.98;0.98;;;;;;;;;;5093946;28;20184;-74
2021/04/07 04:58:06;;;;;;;0.90;0.80;;;;;;;;;;5095658;28;20565;-75
2021/04/07 05:00:32;;;;;;;1.73;1.40;;;;;;;;;;5095604;28;20218;-75
2021/04/07 05:02:58;;;;;;;1.75;1.65;;;;;;;;;;5096103;28;20932;-76
2021/04/07 05:05:24;;;;;;;1.45;1.35;;;;;;;;;;5095326;28;20556;-74
2021/04/07 05:07:51;;;;;;;1.30;0.95;;;;;;;;;;5095393;28;20252;-74
2021/04/07 05:10:17;;;;;;;1.40;1.30;;;;;;;;;;5095597;28;20287;-74
2021/04/07 05:12:43;;;;;;;1.27;1.17;;;;;;;;;;5095183;28;20224;-75
2021/04/07 05:15:10;;;;;;;0.70;0.60;;;;;;;;;;5095319;28;20184;-74
2021/04/07 05:17:36;;;;;;;1.40;1.30;;;;;;;;;;5095527;28;20678;-74
2021/04/07 05:20:03;;;;;;;1.00;0.80;;;;;;;;;;5095424;28;20199;-74
2021/04/07 05:22:29;;;;;;;2.55;1.63;;;;;;;;;;5094914;28;20236;-74
2021/04/07 05:24:56;;;;;;;1.30;0.85;;;;;;;;;;5094714;28;20288;-74
2021/04/07 05:27:23;;;;;;;3.60;1.42;;;;;;;;;;5094949;28;20243;-74
2021/04/07 05:29:49;;;;;;;5.60;1.80;;;;;;;;;;5094903;28;20200;-74
2021/04/07 05:32:15;;;;;;;1.23;1.13;;;;;;;;;;5094834;28;20241;-74
2021/04/07 05:34:41;;;;;;;0.93;0.88;;;;;;;;;;5094919;28;20204;-76
2021/04/07 05:37:07;;;;;;;0.90;0.90;;;;;;;;;;5094520;28;20256;-74
2021/04/07 05:39:33;;;;;;;4.70;1.40;;;;;;;;;;5094437;28;20287;-74
2021/04/07 05:42:00;;;;;;;2.30;2.17;;;;;;;;;;5095215;28;20661;-74
2021/04/07 05:44:26;;;;;;;2.35;1.85;;;;;;;;;;5094369;28;20248;-74
2021/04/07 05:46:52;;;;;;;9.07;1.70;;;;;;;;;;5094656;28;20982;-74
2021/04/07 05:49:18;;;;;;;1.83;1.27;;;;;;;;;;5094785;28;20626;-74
2021/04/07 05:51:44;;;;;;;6.10;2.25;;;;;;;;;;5094355;28;20333;-75
2021/04/07 05:54:11;;;;;;;1.55;1.45;;;;;;;;;;5094725;28;20235;-74
2021/04/07 05:56:36;;;;;;;3.47;0.95;;;;;;;;;;5094625;28;20211;-74
2021/04/07 05:59:04;;;;;;;1.30;1.17;;;;;;;;;;5094592;28;20188;-73
2021/04/07 06:01:30;;;;;;;1.63;1.17;;;;;;;;;;5094647;28;20653;-74
2021/04/07 06:03:56;;;;;;;20.40;2.20;;;;;;;;;;5094162;28;20206;-74
2021/04/07 06:06:22;;;;;;;1.73;1.63;;;;;;;;;;5093982;28;20203;-74
2021/04/07 06:08:49;;;;;;;2.38;2.17;;;;;;;;;;5094255;28;20239;-75
2021/04/07 06:11:16;;;;;;;1.42;1.33;;;;;;;;;;5094452;28;20207;-74
2021/04/07 06:13:42;;;;;;;3.00;2.67;;;;;;;;;;5094386;28;20215;-75
2021/04/07 06:16:09;;;;;;;2.65;2.15;;;;;;;;;;5094318;28;20241;-74
2021/04/07 06:18:35;;;;;;;2.80;1.60;;;;;;;;;;5094443;28;20218;-75
2021/04/07 06:21:01;;;;;;;2.08;1.45;;;;;;;;;;5094034;28;20200;-75
2021/04/07 06:23:27;;;;;;;2.75;1.95;;;;;;;;;;5094981;28;20226;-74
2021/04/07 06:25:53;;;;;;;3.92;2.45;;;;;;;;;;5094703;28;20184;-74
2021/04/07 06:28:19;;;;;;;1.73;1.63;;;;;;;;;;5094477;28;20207;-75
2021/04/07 06:30:46;;;;;;;5.72;2.10;;;;;;;;;;5094616;28;20626;-75
2021/04/07 06:33:14;;;;;;;3.95;2.00;;;;;;;;;;5094513;28;20575;-75
2021/04/07 06:35:41;;;;;;;1.45;1.35;;;;;;;;;;5093730;28;20250;-74
2021/04/07 06:38:07;;;;;;;2.42;2.22;;;;;;;;;;5094095;28;20630;-75
2021/04/07 06:40:33;;;;;;;4.13;2.42;;;;;;;;;;5094126;28;20560;-73
2021/04/07 06:43:00;;;;;;;2.75;2.05;;;;;;;;;;5093780;28;20192;-75
2021/04/07 06:45:26;;;;;;;8.50;1.90;;;;;;;;;;5093646;28;20226;-74
2021/04/07 06:47:53;;;;;;;1.30;1.20;;;;;;;;;;5093875;28;20239;-73
2021/04/07 06:50:20;;;;;;;1.65;1.33;;;;;;;;;;5093724;28;20248;-74
2021/04/07 06:52:46;;;;;;;3.40;3.10;;;;;;;;;;5093690;28;20263;-73
2021/04/07 06:55:15;;;;;;;2.42;1.60;;;;;;;;;;5093260;28;20276;-73
2021/04/07 06:57:42;;;;;;;2.97;2.33;;;;;;;;;;5093003;28;20199;-76
2021/04/07 07:00:08;;;;;;;1.30;1.20;;;;;;;;;;5093472;28;20210;-73
2021/04/07 07:02:35;;;;;;;2.55;1.20;;;;;;;;;;5093470;28;20207;-72
2021/04/07 07:05:01;;;;;;;2.17;1.60;;;;;;;;;;5093358;28;20655;-72
2021/04/07 07:07:29;;;;;;;0.70;0.70;;;;;;;;;;5092748;28;20669;-73
2021/04/07 07:09:55;;;;;;;2.50;2.40;;;;;;;;;;5093288;28;20210;-74
2021/04/07 07:12:22;;;;;;;2.80;1.55;;;;;;;;;;5075217;28;20286;-74
2021/04/07 07:14:49;;;;;;;1.65;1.40;;;;;;;;;;5093014;28;20285;-74
2021/04/07 07:17:25;;;;;;;2.38;2.05;;;;;;;;;;5092969;28;20243;-72
2021/04/07 07:19:51;;;;;;;2.45;1.77;;;;;;;;;;5091705;28;20233;-74
2021/04/07 07:22:20;;;;;;;4.53;2.45;;;;;;;;;;5092524;28;20210;-72
2021/04/07 07:24:50;;;;;;;2.20;1.98;;;;;;;;;;5092648;28;20227;-73
2021/04/07 07:27:17;;;;;;;1.75;1.65;;;;;;;;;;5092543;28;20630;-72
2021/04/07 07:29:52;;;;;;;2.40;1.40;;;;;;;;;;5092914;28;20207;-73
2021/04/07 07:32:18;;;;;;;16.33;2.17;;;;;;;;;;5092356;28;20210;-73
2021/04/07 07:34:44;;;;;;;6.28;1.95;;;;;;;;;;5092526;28;20251;-73
2021/04/07 07:37:11;;;;;;;1.20;1.10;;;;;;;;;;5092263;28;20325;-73
2021/04/07 07:39:37;;;;;;;2.05;1.73;;;;;;;;;;5092680;28;20216;-75
2021/04/07 07:42:06;;;;;;;3.28;2.75;;;;;;;;;;5092717;28;20196;-73
2021/04/07 07:44:32;;;;;;;1.45;1.35;;;;;;;;;;5093195;28;20204;-74
2021/04/07 07:47:03;;;;;;;2.13;1.92;;;;;;;;;;5093196;28;20180;-73
2021/04/07 07:49:29;;;;;;;3.25;2.28;;;;;;;;;;5092853;28;20224;-74
2021/04/07 07:51:56;;;;;;;1.70;1.60;;;;;;;;;;5092578;28;20291;-73
2021/04/07 07:54:22;;;;;;;1.77;1.50;;;;;;;;;;5092620;28;20224;-73
2021/04/07 07:56:49;;;;;;;2.85;2.65;;;;;;;;;;5092447;28;20203;-74
2021/04/07 07:59:25;;;;;;;1.85;1.55;;;;;;;;;;5092373;28;20287;-75
2021/04/07 08:01:51;;;;;;;2.13;1.92;;;;;;;;;;5092430;28;20234;-73
2021/04/07 08:04:18;;;;;;;2.05;1.52;;;;;;;;;;5091830;28;20199;-73
2021/04/07 08:06:44;;;;;;;1.42;1.33;;;;;;;;;;5092633;28;20287;-73
2021/04/07 08:09:11;;;;;;;2.13;1.92;;;;;;;;;;5092580;28;20610;-74
2021/04/07 08:11:37;;;;;;;1.50;1.40;;;;;;;;;;5092190;28;20534;-73
2021/04/07 08:14:04;;;;;;;3.10;1.55;;;;;;;;;;5091938;28;20216;-75
2021/04/07 08:16:32;;;;;;;1.08;0.98;;;;;;;;;;5092658;28;20664;-73
2021/04/07 08:19:00;;;;;;;7.13;2.28;;;;;;;;;;5092303;28;20538;-73
2021/04/07 08:21:27;;;;;;;6.13;4.57;;;;;;;;;;5092230;28;20239;-75
2021/04/07 08:23:55;;;;;;;1.70;1.13;;;;;;;;;;5092382;28;20538;-74
2021/04/07 08:26:23;;;;;;;2.28;1.75;;;;;;;;;;5092286;28;20203;-73
2021/04/07 08:28:50;;;;;;;1.73;1.50;;;;;;;;;;5092016;28;20188;-74
2021/04/07 08:31:17;;;;;;;1.05;0.95;;;;;;;;;;5095269;28;20707;-74
2021/04/07 08:33:46;;;;;;;1.85;1.73;;;;;;;;;;5095774;28;20215;-75
2021/04/07 08:36:14;;;;;;;2.78;1.50;;;;;;;;;;5096039;28;20244;-73
2021/04/07 08:38:40;;;;;;;2.33;1.95;;;;;;;;;;5095974;28;20253;-75
2021/04/07 08:41:08;;;;;;;1.58;1.48;;;;;;;;;;5096218;28;20563;-75
2021/04/07 08:43:34;;;;;;;5.75;2.55;;;;;;;;;;5095922;28;20203;-74
2021/04/07 08:46:10;;;;;;;1.92;1.40;;;;;;;;;;5096075;28;20204;-74
2021/04/07 08:48:36;;;;;;;4.05;1.80;;;;;;;;;;5095576;28;20199;-73
2021/04/07 08:51:04;;;;;;;2.25;1.85;;;;;;;;;;5095839;28;20297;-74
2021/04/07 08:53:31;;;;;;;4.53;1.30;;;;;;;;;;5095073;28;20224;-72
2021/04/07 08:55:57;;;;;;;2.38;2.17;;;;;;;;;;5095220;28;20597;-73
2021/04/07 08:58:27;;;;;;;3.90;2.00;;;;;;;;;;5095165;28;20271;-73
2021/04/07 09:00:54;;;;;;;3.28;1.83;;;;;;;;;;5095854;28;20642;-76
2021/04/07 09:03:21;;;;;;;1.27;1.13;;;;;;;;;;5095987;28;20505;-73
2021/04/07 09:05:49;;;;;;;2.72;1.90;;;;;;;;;;5095009;28;20295;-73
2021/04/07 09:08:17;;;;;;;1.73;1.63;;;;;;;;;;5095088;28;20209;-75
2021/04/07 09:10:44;;;;;;;4.18;3.17;;;;;;;;;;5095385;28;20193;-74
2021/04/07 09:13:11;;;;;;;4.10;2.13;;;;;;;;;;5094918;28;20215;-73
2021/04/07 09:15:46;;;;;;;2.60;1.83;;;;;;;;;;5094880;28;20200;-75
2021/04/07 09:18:12;;;;;;;1.40;1.30;;;;;;;;;;5094915;28;20199;-74
2021/04/07 09:20:42;;;;;;;2.30;2.10;;;;;;;;;;5094956;28;20622;-75
2021/04/07 09:23:14;;;;;;;1.50;1.38;;;;;;;;;;5094928;28;20197;-72
2021/04/07 09:25:46;;;;;;;2.97;2.60;;;;;;;;;;5094844;28;20211;-74
2021/04/07 09:28:13;;;;;;;1.40;1.30;;;;;;;;;;5094679;28;20196;-73
2021/04/07 09:30:47;;;;;;;8.13;1.58;;;;;;;;;;5095034;28;20201;-74
2021/04/07 09:33:17;;;;;;;4.07;1.45;;;;;;;;;;5094817;28;20375;-73
2021/04/07 09:35:54;;;;;;;3.85;1.65;;;;;;;;;;5094299;28;20638;-74
2021/04/07 09:38:20;;;;;;;1.52;1.33;;;;;;;;;;5094991;28;20204;-74
2021/04/07 09:40:47;;;;;;;2.10;1.65;;;;;;;;;;5094991;28;20638;-73
2021/04/07 09:43:14;;;;;;;2.45;2.00;;;;;;;;;;5093718;28;20622;-74
2021/04/07 09:45:40;;;;;;;1.55;1.45;;;;;;;;;;5094803;28;20210;-75
2021/04/07 09:48:07;;;;;;;2.65;1.20;;;;;;;;;;5094064;28;20215;-74
2021/04/07 09:50:33;;;;;;;3.30;1.70;;;;;;;;;;5094514;28;20207;-74
2021/04/07 09:53:00;;;;;;;2.65;1.85;;;;;;;;;;5094123;28;20294;-74
2021/04/07 09:55:26;;;;;;;2.95;2.00;;;;;;;;;;5094336;28;20205;-72
2021/04/07 09:58:00;;;;;;;3.53;1.58;;;;;;;;;;5094443;28;20208;-75
2021/04/07 10:00:30;;;;;;;4.63;1.35;;;;;;;;;;5094187;28;20195;-74
2021/04/07 10:02:57;;;;;;;1.65;1.55;;;;;;;;;;5094286;28;20196;-75
2021/04/07 10:05:27;;;;;;;1.52;1.40;;;;;;;;;;5094332;28;20325;-74
2021/04/07 10:07:53;;;;;;;1.40;1.30;;;;;;;;;;5094486;28;20221;-74
2021/04/07 10:10:22;;;;;;;1.20;1.10;;;;;;;;;;5094209;28;20564;-73
2021/04/07 10:12:49;;;;;;;3.00;1.40;;;;;;;;;;5093804;28;20208;-73
2021/04/07 10:15:17;;;;;;;2.65;1.50;;;;;;;;;;5094979;28;20231;-74
2021/04/07 10:17:44;;;;;;;1.48;1.00;;;;;;;;;;5094262;28;20289;-74
2021/04/07 10:20:11;;;;;;;1.48;1.38;;;;;;;;;;5094400;28;20287;-74
2021/04/07 10:22:38;;;;;;;2.15;1.23;;;;;;;;;;5094397;28;20630;-75
2021/04/07 10:25:12;;;;;;;1.42;1.33;;;;;;;;;;5093690;28;20196;-75
2021/04/07 10:27:39;;;;;;;2.65;1.77;;;;;;;;;;5094013;28;20194;-75
2021/04/07 10:30:05;;;;;;;1.23;1.13;;;;;;;;;;5094209;28;20677;-74
2021/04/07 10:32:38;;;;;;;1.63;1.52;;;;;;;;;;5094171;28;20184;-74
2021/04/07 10:35:04;;;;;;;5.38;2.00;;;;;;;;;;5093618;28;20726;-73
2021/04/07 10:37:31;;;;;;;1.60;1.50;;;;;;;;;;5093217;28;20231;-74
2021/04/07 10:39:57;;;;;;;1.30;1.13;;;;;;;;;;5094042;28;20721;-73
2021/04/07 10:42:23;;;;;;;1.70;1.00;;;;;;;;;;5093142;28;20231;-74
2021/04/07 10:44:57;;;;;;;10.02;2.35;;;;;;;;;;5093752;28;20661;-74
2021/04/07 10:47:23;;;;;;;1.65;1.20;;;;;;;;;;5093388;28;20572;-74
2021/04/07 10:49:54;;;;;;;1.10;1.05;;;;;;;;;;5093700;28;20275;-73
2021/04/07 10:52:33;;;;;;;2.97;1.30;;;;;;;;;;5093838;28;20208;-74
2021/04/07 10:55:00;;;;;;;3.28;1.92;;;;;;;;;;5093379;28;20226;-74
2021/04/07 10:57:30;;;;;;;2.35;1.55;;;;;;;;;;5093288;28;20257;-74
2021/04/07 10:59:56;;;;;;;1.90;1.80;;;;;;;;;;5092789;28;20269;-73
2021/04/07 11:02:22;;;;;;;5.38;1.50;;;;;;;;;;5093093;28;20220;-73
2021/04/07 11:04:48;;;;;;;8.60;2.58;;;;;;;;;;5092518;28;20249;-73
2021/04/07 11:07:17;;;;;;;4.22;2.10;;;;;;;;;;5093126;28;20293;-74
2021/04/07 11:09:46;;;;;;;5.65;1.83;;;;;;;;;;5092779;28;20236;-72
2021/04/07 11:12:13;;;;;;;1.90;1.63;;;;;;;;;;5092975;28;20603;-75
2021/04/07 11:14:41;;;;;;;4.72;1.88;;;;;;;;;;5093325;28;20707;-72
2021/04/07 11:17:14;;;;;;;2.38;1.45;;;;;;;;;;5093267;28;20204;-73
2021/04/07 11:19:40;;;;;;;7.25;2.15;;;;;;;;;;5092542;28;20203;-74
2021/04/07 11:22:07;;;;;;;4.22;2.45;;;;;;;;;;5092982;28;20207;-74
2021/04/07 11:24:35;;;;;;;3.25;1.30;;;;;;;;;;5092777;28;20243;-74
2021/04/07 11:27:01;;;;;;;3.65;3.15;;;;;;;;;;5093545;28;20204;-75
2021/04/07 11:29:27;;;;;;;1.48;1.38;;;;;;;;;;5093905;28;20587;-73
2021/04/07 11:31:55;;;;;;;1.60;1.50;;;;;;;;;;5092387;28;20200;-74
2021/04/07 11:34:26;;;;;;;1.13;1.02;;;;;;;;;;5092855;28;20718;-74
2021/04/07 11:37:03;;;;;;;2.65;1.58;;;;;;;;;;5093012;28;20228;-74
2021/04/07 11:39:35;;;;;;;1.00;0.90;;;;;;;;;;5092642;28;20188;-73
2021/04/07 11:42:07;;;;;;;3.03;1.38;;;;;;;;;;5092967;28;20618;-74
2021/04/07 11:44:34;;;;;;;1.63;1.30;;;;;;;;;;5092624;28;20206;-74
2021/04/07 11:47:01;;;;;;;2.13;1.27;;;;;;;;;;5092585;28;20557;-73
2021/04/07 11:49:28;;;;;;;1.50;1.27;;;;;;;;;;5092816;28;20212;-74
2021/04/07 11:51:54;;;;;;;1.58;1.48;;;;;;;;;;5092499;28;20207;-74
2021/04/07 11:54:20;;;;;;;1.00;1.00;;;;;;;;;;5092335;28;20220;-75
2021/04/07 11:56:47;;;;;;;1.77;1.35;;;;;;;;;;5092485;28;20615;-74
2021/04/07 11:59:15;;;;;;;2.95;1.20;;;;;;;;;;5092416;28;20199;-74
2021/04/07 12:01:42;;;;;;;3.45;1.92;;;;;;;;;;5092902;28;20689;-74
2021/04/07 12:04:08;;;;;;;2.25;1.40;;;;;;;;;;5093049;28;20208;-74
2021/04/07 12:06:34;;;;;;;1.45;1.30;;;;;;;;;;5098810;28;20196;-73
2021/04/07 12:09:00;;;;;;;1.10;1.00;;;;;;;;;;5099356;28;20207;-74
2021/04/07 12:11:27;;;;;;;3.75;1.42;;;;;;;;;;5098930;28;20210;-74
2021/04/07 12:13:57;;;;;;;1.50;1.40;;;;;;;;;;5098670;28;20315;-74
2021/04/07 12:16:24;;;;;;;3.00;1.85;;;;;;;;;;5098939;28;20200;-73
2021/04/07 12:18:50;;;;;;;2.03;1.92;;;;;;;;;;5098920;28;20200;-74
2021/04/07 12:21:17;;;;;;;2.38;1.55;;;;;;;;;;5099324;28;20195;-75
2021/04/07 12:23:43;;;;;;;1.48;1.38;;;;;;;;;;5099483;28;20228;-74
2021/04/07 12:26:11;;;;;;;1.77;1.67;;;;;;;;;;5099208;28;20208;-74
2021/04/07 12:28:37;;;;;;;0.90;0.90;;;;;;;;;;5098568;28;20264;-74
2021/04/07 12:31:04;;;;;;;1.65;1.55;;;;;;;;;;5098859;28;20207;-73
2021/04/07 12:33:31;;;;;;;2.35;1.52;;;;;;;;;;5098623;28;20226;-74
2021/04/07 12:35:59;;;;;;;1.50;1.40;;;;;;;;;;5099029;28;20229;-74
2021/04/07 12:38:26;;;;;;;6.07;2.65;;;;;;;;;;5098725;28;20188;-74
2021/04/07 12:40:53;;;;;;;3.00;1.77;;;;;;;;;;5099313;28;20708;-74
2021/04/07 12:43:20;;;;;;;2.42;1.75;;;;;;;;;;5098496;28;20532;-74
2021/04/07 12:45:46;;;;;;;1.75;1.33;;;;;;;;;;5098384;28;20201;-75
2021/04/07 12:48:12;;;;;;;3.03;1.67;;;;;;;;;;5098798;28;20242;-74
2021/04/07 12:50:40;;;;;;;3.88;2.17;;;;;;;;;;5098262;28;20192;-75
2021/04/07 12:53:06;;;;;;;1.80;1.48;;;;;;;;;;5098563;28;20583;-74
2021/04/07 12:55:33;;;;;;;2.25;1.50;;;;;;;;;;5098455;28;20646;-75
2021/04/07 12:57:59;;;;;;;2.33;1.45;;;;;;;;;;5098591;28;20214;-75
2021/04/07 13:00:26;;;;;;;1.50;1.35;;;;;;;;;;5098166;28;20572;-75
2021/04/07 13:02:52;;;;;;;3.83;1.98;;;;;;;;;;5098365;28;20254;-75
2021/04/07 13:05:18;;;;;;;3.08;1.95;;;;;;;;;;5098747;28;20215;-75
2021/04/07 13:07:46;;;;;;;1.70;1.60;;;;;;;;;;5098548;28;20219;-75
2021/04/07 13:10:13;;;;;;;2.97;1.83;;;;;;;;;;5098610;28;20245;-75
2021/04/07 13:12:40;;;;;;;1.75;1.17;;;;;;;;;;5098122;28;20203;-74
2021/04/07 13:15:08;;;;;;;1.45;1.35;;;;;;;;;;5098059;28;20226;-74
2021/04/07 13:17:34;;;;;;;1.20;1.10;;;;;;;;;;5095622;28;20192;-74
2021/04/07 13:20:00;;;;;;;1.65;1.40;;;;;;;;;;5095001;28;20591;-75
2021/04/07 13:22:26;;;;;;;6.28;1.15;;;;;;;;;;5095122;28;20631;-75
2021/04/07 13:24:53;;;;;;;4.80;1.02;;;;;;;;;;5095179;28;20203;-75
2021/04/07 13:27:19;;;;;;;1.80;1.70;;;;;;;;;;5094824;28;20209;-76
2021/04/07 13:29:46;;;;;;;2.88;1.10;;;;;;;;;;5094536;28;20247;-75
2021/04/07 13:32:16;;;;;;;1.70;1.15;;;;;;;;;;5094598;28;20205;-75
2021/04/07 13:34:49;;;;;;;1.70;1.60;;;;;;;;;;5094907;28;20263;-75
2021/04/07 13:37:19;;;;;;;1.00;0.90;;;;;;;;;;5094298;28;20238;-74
2021/04/07 13:39:53;;;;;;;1.92;0.90;;;;;;;;;;5094450;28;20517;-76
2021/04/07 13:45:04;;;;;;;1.50;1.40;;;;;;;;;;5095022;28;20273;-75
2021/04/07 13:47:31;;;;;;;2.47;1.17;;;;;;;;;;5094446;28;20215;-75
2021/04/07 13:49:57;;;;;;;1.55;1.40;;;;;;;;;;5093812;28;20295;-74
2021/04/07 13:52:23;;;;;;;1.42;1.25;;;;;;;;;;5094081;28;20278;-74
2021/04/07 13:54:51;;;;;;;1.58;1.48;;;;;;;;;;5094404;28;20789;-75
2021/04/07 13:57:20;;;;;;;1.52;1.25;;;;;;;;;;5094386;28;20329;-76
2021/04/07 13:59:47;;;;;;;1.50;1.40;;;;;;;;;;5094378;28;20210;-75
2021/04/07 14:02:13;;;;;;;1.75;1.40;;;;;;;;;;5094436;28;20201;-74
2021/04/07 14:04:39;;;;;;;3.10;0.93;;;;;;;;;;5093908;28;20205;-73
2021/04/07 14:07:09;;;;;;;1.20;1.10;;;;;;;;;;5094383;28;20286;-75
2021/04/07 14:09:35;;;;;;;1.00;0.90;;;;;;;;;;5094697;28;20210;-73
2021/04/07 14:12:01;;;;;;;1.90;1.65;;;;;;;;;;5094334;28;20201;-74
2021/04/07 14:14:27;;;;;;;1.15;0.98;;;;;;;;;;5094675;28;20223;-75
2021/04/07 14:16:54;;;;;;;2.03;1.83;;;;;;;;;;5093928;28;20207;-75
2021/04/07 14:19:21;;;;;;;2.65;1.45;;;;;;;;;;5094839;28;20207;-74
2021/04/07 14:21:47;;;;;;;3.53;1.70;;;;;;;;;;5093598;28;20213;-74
2021/04/07 14:24:13;;;;;;;1.20;1.10;;;;;;;;;;5094112;28;20637;-74
2021/04/07 14:26:39;;;;;;;1.20;1.10;;;;;;;;;;5093710;28;20203;-75
2021/04/07 14:29:06;;;;;;;0.90;0.80;;;;;;;;;;5093160;28;20214;-74
2021/04/07 14:31:32;;;;;;;1.25;1.15;;;;;;;;;;5094024;28;20895;-74
2021/04/07 14:34:01;;;;;;;2.17;0.90;;;;;;;;;;5094346;28;20216;-73
2021/04/07 14:36:27;;;;;;;7.25;1.98;;;;;;;;;;5093281;28;20231;-74
2021/04/07 14:38:54;;;;;;;1.65;1.20;;;;;;;;;;5093614;28;20204;-75
2021/04/07 14:41:20;;;;;;;1.77;1.60;;;;;;;;;;5094354;28;20208;-75
2021/04/07 14:43:46;;;;;;;2.53;1.30;;;;;;;;;;5094308;28;20192;-74